Accueil
METAR-TAF:

METAR-TAF

Aéroports :

Aéroport de Bathurst

Bathurst, Nouveau-Brunswick, Canada

latitude: 47-38N, longitude: 065-45W, altitude: 59 m

Observation

Le bulletin a été fait il y a 57 minutes, à 00:00 UTC
Vent 4 kt de nord-ouest, variant entre ouest et nord
Température 13°C
Humidité 38%
Pression 1005 hPa
Visibilité: 14.5 km
Ciel clair

METAR: CZBF 030000Z AUTO 31004KT 280V350 9SM CLR 13/M01 A2967 RMK SLP050 DENSITY ALT 300FT

Heure: 21:57 (00:57 UTC)

Prévision

Le bulletin a été fait il y a 5 heures et 19 minutes, à 19:38 UTC
Prévision valable du 02 à 20 UTC au 03 à 03 UTC
Vent 12 kt de nord-ouest
Visibilité: 10 km
Nuages épars à une hauteur de 6000 ft
Nuages fragmentés à une hauteur de 24000 ft
Evoluant progressivement
du 02 à 23 UTC au 03 à 01 UTC
Vent 8 kt de ouest/nord-ouest

TAF: CZBF 021938Z 0220/0303 32012KT P6SM SCT060 BKN240 BECMG 0223/0301 29008KT RMK FCST BASED ON AUTO OBS. NXT FCST WILL BE ISSUED AT 030845Z

Observations et prévisions météorologiques de plus de 4000 aéroports (messages METAR et TAF).

Les stations disponibles sont représentées par des disques jaunes et rouges sur la carte.

Passer la souris dessus pour voir le nom de la station.

Cliquer dessus pour voir les observations et prévisions météorologiques.

Pour changer de carte: cliquez sur les boutons verts avec une croix noire pour zoomer, sur le bouton vert avec un tiret pour effectuer un zoom arrière, ou sur les flèches vertes pour les cartes adjacentes.


METAR-TAF: